createdAt,value
2023-03-15T00:02:07.541Z,99692.75
2023-03-15T00:04:35.281Z,99689.13
2023-03-15T00:07:03.130Z,99696.91
2023-03-15T00:09:31.966Z,99699.75
2023-03-15T00:11:59.536Z,99695.59
2023-03-15T00:14:27.277Z,99695.41
2023-03-15T00:16:55.269Z,99699.56
2023-03-15T00:19:22.906Z,99711.34
2023-03-15T00:21:50.456Z,99712.50
2023-03-15T00:24:17.952Z,99715.81
2023-03-15T00:26:46.986Z,99720.78
2023-03-15T00:29:14.652Z,99727.75
2023-03-15T00:31:42.178Z,99725.56
2023-03-15T00:34:09.743Z,99735.69
2023-03-15T00:36:37.666Z,99731.56
2023-03-15T00:39:05.574Z,99733.84
2023-03-15T00:41:33.211Z,99739.78
2023-03-15T00:44:03.799Z,99736.00
2023-03-15T00:46:31.613Z,99739.63
2023-03-15T00:49:00.259Z,99741.59
2023-03-15T00:51:27.851Z,99749.41
2023-03-15T00:53:55.405Z,99746.72
2023-03-15T00:56:24.697Z,99740.09
2023-03-15T00:58:53.218Z,99745.38
2023-03-15T01:01:24.229Z,99751.97
2023-03-15T01:03:51.910Z,99750.75
2023-03-15T01:06:21.897Z,99749.94
2023-03-15T01:08:49.798Z,99764.13
2023-03-15T01:11:19.989Z,99766.28
2023-03-15T01:13:48.305Z,99766.38
2023-03-15T01:16:16.465Z,99767.72
2023-03-15T01:18:45.404Z,99767.28
2023-03-15T01:21:15.451Z,99770.25
2023-03-15T01:23:43.018Z,99772.25
2023-03-15T01:26:19.101Z,99769.53
2023-03-15T01:28:47.065Z,99774.22
2023-03-15T01:31:18.861Z,99782.81
2023-03-15T01:33:48.064Z,99782.28
2023-03-15T01:36:16.104Z,99775.00
2023-03-15T01:38:43.834Z,99777.59
2023-03-15T01:41:12.558Z,99786.31
2023-03-15T01:43:46.943Z,99787.78
2023-03-15T01:46:26.711Z,99797.25
2023-03-15T01:49:01.615Z,99789.09
2023-03-15T01:51:35.438Z,99800.06
2023-03-15T01:54:07.700Z,99813.16
2023-03-15T01:56:38.398Z,99805.22
2023-03-15T01:59:08.317Z,99816.06
2023-03-15T02:01:38.006Z,99813.72
2023-03-15T02:04:10.718Z,99816.28
2023-03-15T02:06:38.776Z,99811.59
2023-03-15T02:09:09.790Z,99825.06
2023-03-15T02:11:37.939Z,99828.41
2023-03-15T02:14:06.534Z,99824.19
2023-03-15T02:16:34.989Z,99835.81
2023-03-15T02:19:02.639Z,99834.31
2023-03-15T02:21:43.263Z,99838.78
2023-03-15T02:24:22.277Z,99839.97
2023-03-15T02:26:52.714Z,99830.44
2023-03-15T02:29:24.272Z,99837.47
2023-03-15T02:31:53.812Z,99832.50
2023-03-15T02:34:25.232Z,99835.97
2023-03-15T02:36:54.679Z,99842.22
2023-03-15T02:39:23.616Z,99841.66
2023-03-15T02:41:54.618Z,99836.25
2023-03-15T02:44:29.310Z,99841.25
2023-03-15T02:47:01.244Z,99834.13
2023-03-15T02:49:32.528Z,99836.00
2023-03-15T02:52:00.065Z,99844.03
2023-03-15T02:54:27.666Z,99840.03
2023-03-15T02:56:55.309Z,99839.06
2023-03-15T02:59:24.207Z,99849.13
2023-03-15T03:01:51.873Z,99850.44
2023-03-15T03:04:19.721Z,99850.44
2023-03-15T03:06:47.348Z,99853.50
2023-03-15T03:09:15.214Z,99857.66
2023-03-15T03:11:42.724Z,99853.41
2023-03-15T03:14:10.257Z,99862.16
2023-03-15T03:16:39.216Z,99863.63
2023-03-15T03:19:06.840Z,99875.34
2023-03-15T03:21:34.386Z,99877.69
2023-03-15T03:24:01.924Z,99884.25
2023-03-15T03:26:32.746Z,99885.59
2023-03-15T03:29:00.432Z,99886.84
2023-03-15T03:31:29.010Z,99896.47
2023-03-15T03:33:57.965Z,99912.38
2023-03-15T03:36:25.834Z,99904.16
2023-03-15T03:38:54.679Z,99900.91
2023-03-15T03:41:22.303Z,99903.00
2023-03-15T03:43:50.667Z,99910.41
2023-03-15T03:46:18.222Z,99908.03
2023-03-15T03:48:45.935Z,99910.13
2023-03-15T03:51:14.863Z,99913.41
2023-03-15T03:53:42.505Z,99916.53
2023-03-15T03:56:10.477Z,99928.72
2023-03-15T03:58:38.178Z,99928.09
2023-03-15T04:01:06.193Z,99924.56
2023-03-15T04:03:34.211Z,99926.38
2023-03-15T04:06:05.629Z,99930.47
2023-03-15T04:08:34.794Z,99937.72
2023-03-15T04:11:03.999Z,99939.81
2023-03-15T04:13:32.441Z,99947.06
2023-03-15T04:16:02.327Z,99944.41
2023-03-15T04:18:30.202Z,99951.34
2023-03-15T04:20:57.737Z,99949.41
2023-03-15T04:23:25.878Z,99943.00
2023-03-15T04:25:55.553Z,99950.78
2023-03-15T04:28:23.732Z,99940.97
2023-03-15T04:30:52.111Z,99945.47
2023-03-15T04:33:19.655Z,99955.38
2023-03-15T04:35:47.307Z,99959.69
2023-03-15T04:38:15.210Z,99966.50
2023-03-15T04:40:42.759Z,99965.53
2023-03-15T04:43:11.732Z,99969.72
2023-03-15T04:45:39.244Z,99954.28
2023-03-15T04:48:07.092Z,99966.41
2023-03-15T04:50:34.654Z,99966.25
2023-03-15T04:53:02.294Z,99963.06
2023-03-15T04:55:29.885Z,99969.72
2023-03-15T04:57:58.312Z,99971.78
2023-03-15T05:00:27.301Z,99964.38
2023-03-15T05:02:55.592Z,99963.31
2023-03-15T05:05:24.712Z,99965.22
2023-03-15T05:07:52.410Z,99969.41
2023-03-15T05:10:20.170Z,99962.03
2023-03-15T05:12:47.834Z,99969.44
2023-03-15T05:15:17.157Z,99974.81
2023-03-15T05:17:46.813Z,99979.69
2023-03-15T05:20:15.579Z,99975.22
2023-03-15T05:22:44.009Z,99980.75
2023-03-15T05:25:11.792Z,99977.38
2023-03-15T05:27:39.706Z,99987.13
2023-03-15T05:30:10.263Z,99986.75
2023-03-15T05:32:39.539Z,99987.44
2023-03-15T05:35:09.890Z,99991.44
2023-03-15T05:37:37.611Z,100001.84
2023-03-15T05:40:08.153Z,100004.75
2023-03-15T05:42:36.301Z,100002.53
2023-03-15T05:45:04.050Z,100013.13
2023-03-15T05:47:33.245Z,100012.44
2023-03-15T05:50:01.726Z,100010.78
2023-03-15T05:52:30.836Z,100011.38
2023-03-15T05:55:00.660Z,100016.56
2023-03-15T05:57:28.504Z,100018.16
2023-03-15T05:59:57.692Z,100016.41
2023-03-15T06:02:25.444Z,100019.47
2023-03-15T06:04:53.074Z,100024.34
2023-03-15T06:07:21.181Z,100023.09
2023-03-15T06:09:50.184Z,100017.53
2023-03-15T06:12:17.755Z,100021.84
2023-03-15T06:14:45.428Z,100005.41
2023-03-15T06:17:13.148Z,100025.91
2023-03-15T06:19:40.752Z,100033.66
2023-03-15T06:22:08.908Z,100031.19
2023-03-15T06:24:37.057Z,100037.56
2023-03-15T06:27:06.249Z,100047.25
2023-03-15T06:29:34.550Z,100046.16
2023-03-15T06:32:03.193Z,100052.00
2023-03-15T06:34:30.780Z,100050.13
2023-03-15T06:36:58.412Z,100051.56
2023-03-15T06:39:26.126Z,100056.47
2023-03-15T06:41:57.266Z,100059.53
2023-03-15T06:44:26.405Z,100059.81
2023-03-15T06:46:54.117Z,100051.25
2023-03-15T06:49:21.764Z,100055.25
2023-03-15T06:51:49.416Z,100065.94
2023-03-15T06:54:18.440Z,100062.94
2023-03-15T06:56:46.091Z,100071.72
2023-03-15T06:59:13.793Z,100076.66
2023-03-15T07:01:42.821Z,100079.84
2023-03-15T07:04:10.906Z,100084.00
2023-03-15T07:06:38.516Z,100083.97
2023-03-15T07:09:06.640Z,100089.31
2023-03-15T07:11:34.599Z,100087.19
2023-03-15T07:14:02.355Z,100084.72
2023-03-15T07:16:30.524Z,100087.19
2023-03-15T07:19:00.028Z,100083.22
2023-03-15T07:21:27.727Z,100084.34
2023-03-15T07:23:57.603Z,100089.91
2023-03-15T07:26:25.311Z,100085.59
2023-03-15T07:28:53.053Z,100097.59
2023-03-15T07:31:22.226Z,100104.41
2023-03-15T07:33:49.885Z,100105.03
2023-03-15T07:36:19.238Z,100110.50
2023-03-15T07:38:48.299Z,100109.03
2023-03-15T07:41:15.873Z,100115.22
2023-03-15T07:43:43.805Z,100123.16
2023-03-15T07:46:11.541Z,100109.06
2023-03-15T07:48:48.607Z,100114.00
2023-03-15T07:51:17.175Z,100117.59
2023-03-15T07:53:48.204Z,100113.94
2023-03-15T07:56:16.000Z,100120.19
2023-03-15T07:58:43.615Z,100126.19
2023-03-15T08:01:11.246Z,100126.38
2023-03-15T08:03:38.786Z,100132.13
2023-03-15T08:06:06.819Z,100130.03
2023-03-15T08:08:34.518Z,100136.28
2023-03-15T08:11:03.435Z,100134.53
2023-03-15T08:13:31.124Z,100133.75
2023-03-15T08:15:58.706Z,100145.94
2023-03-15T08:18:28.819Z,100140.38
2023-03-15T08:20:56.864Z,100140.28
2023-03-15T08:23:25.587Z,100137.84
2023-03-15T08:25:53.252Z,100153.94
2023-03-15T08:28:24.253Z,100153.94
2023-03-15T08:30:51.957Z,100157.47
2023-03-15T08:33:20.040Z,100156.38
2023-03-15T08:35:52.454Z,100159.31
2023-03-15T08:38:20.033Z,100161.44
2023-03-15T08:40:48.455Z,100169.78
2023-03-15T08:43:16.166Z,100166.25
2023-03-15T08:46:00.113Z,100164.41
2023-03-15T08:48:29.284Z,100170.44
2023-03-15T08:50:58.247Z,100168.13
2023-03-15T08:53:25.972Z,100172.66
2023-03-15T08:55:53.619Z,100182.34
2023-03-15T08:58:21.238Z,100187.03
2023-03-15T09:00:58.748Z,100188.94
2023-03-15T09:03:26.400Z,100191.00
2023-03-15T09:05:57.298Z,100189.59
2023-03-15T09:08:25.161Z,100205.31
2023-03-15T09:10:55.230Z,100194.59
2023-03-15T09:13:23.534Z,100199.28
2023-03-15T09:15:53.235Z,100202.00
2023-03-15T09:18:21.352Z,100195.81
2023-03-15T09:20:48.970Z,100205.66
2023-03-15T09:23:16.854Z,100210.47
2023-03-15T09:25:44.545Z,100200.97
2023-03-15T09:28:12.818Z,100208.44
2023-03-15T09:30:42.227Z,100205.22
2023-03-15T09:33:14.580Z,100221.47
2023-03-15T09:35:42.485Z,100222.22
2023-03-15T09:38:10.508Z,100205.38
2023-03-15T09:40:41.848Z,100217.09
2023-03-15T09:43:44.544Z,100219.91
2023-03-15T09:46:27.618Z,100219.41
2023-03-15T09:49:05.161Z,100220.94
2023-03-15T09:51:41.450Z,100225.47
2023-03-15T09:54:13.724Z,100225.47
2023-03-15T09:56:46.880Z,100232.81
2023-03-15T09:59:17.491Z,100236.94
2023-03-15T10:01:45.337Z,100233.81
2023-03-15T10:04:26.202Z,100240.63
2023-03-15T10:06:56.238Z,100238.28
2023-03-15T10:09:26.700Z,100236.13
2023-03-15T10:12:03.678Z,100241.78
2023-03-15T10:14:48.899Z,100245.31
2023-03-15T10:17:22.201Z,100239.91
2023-03-15T10:19:53.103Z,100244.53
2023-03-15T10:22:28.890Z,100243.25
2023-03-15T10:25:01.394Z,100242.38
2023-03-15T10:27:35.719Z,100242.09
2023-03-15T10:30:14.033Z,100242.56
2023-03-15T10:32:43.489Z,100245.06
2023-03-15T10:35:16.428Z,100236.06
2023-03-15T10:37:44.561Z,100237.69
2023-03-15T10:40:15.909Z,100237.50
2023-03-15T10:42:45.550Z,100236.25
2023-03-15T10:45:24.595Z,100237.63
2023-03-15T10:48:00.032Z,100229.78
2023-03-15T10:50:33.317Z,100239.53
2023-03-15T10:53:04.061Z,100240.63
2023-03-15T10:55:34.777Z,100233.75
2023-03-15T10:58:20.031Z,100236.28
2023-03-15T11:00:52.527Z,100223.69
2023-03-15T11:03:22.213Z,100225.84
2023-03-15T11:05:53.262Z,100215.28
2023-03-15T11:08:22.609Z,100218.72
2023-03-15T11:10:57.907Z,100227.81
2023-03-15T11:13:30.974Z,100226.66
2023-03-15T11:16:14.495Z,100228.56
2023-03-15T11:18:47.606Z,100234.34
2023-03-15T11:21:20.486Z,100237.84
2023-03-15T11:23:53.411Z,100235.41
2023-03-15T11:26:33.794Z,100247.09
2023-03-15T11:29:05.289Z,100252.69
2023-03-15T11:31:33.183Z,100248.34
2023-03-15T11:34:05.765Z,100253.16
2023-03-15T11:36:39.494Z,100244.69
2023-03-15T11:39:08.000Z,100247.91
2023-03-15T11:41:42.662Z,100236.38
2023-03-15T11:44:28.449Z,100239.72
2023-03-15T11:47:00.012Z,100239.16
2023-03-15T11:49:36.338Z,100231.94
2023-03-15T11:52:06.416Z,100243.38
2023-03-15T11:54:34.253Z,100243.13
2023-03-15T11:57:03.896Z,100246.50
2023-03-15T11:59:33.636Z,100240.53
2023-03-15T12:02:27.796Z,100236.94
2023-03-15T12:04:57.255Z,100233.47
2023-03-15T12:07:38.861Z,100243.00
2023-03-15T12:10:33.946Z,100240.41
2023-03-15T12:13:08.979Z,100242.28
2023-03-15T12:15:48.788Z,100232.22
2023-03-15T12:18:23.178Z,100239.88
2023-03-15T12:20:58.399Z,100241.66
2023-03-15T12:23:44.604Z,100253.97
2023-03-15T12:26:24.775Z,100243.78
2023-03-15T12:29:02.495Z,100251.84
2023-03-15T12:31:45.057Z,100256.91
2023-03-15T12:34:16.134Z,100261.19
2023-03-15T12:36:48.524Z,100250.38
2023-03-15T12:39:38.808Z,100256.13
2023-03-15T12:42:06.626Z,100259.63
2023-03-15T12:44:42.384Z,100263.13
2023-03-15T12:47:11.318Z,100263.63
2023-03-15T12:49:42.724Z,100260.47
2023-03-15T12:52:43.575Z,100257.41
2023-03-15T12:55:16.851Z,100247.97
2023-03-15T12:57:49.968Z,100250.28
2023-03-15T13:00:20.495Z,100238.38
2023-03-15T13:02:50.775Z,100253.38
2023-03-15T13:05:23.593Z,100244.34
2023-03-15T13:07:59.811Z,100261.72
2023-03-15T13:10:59.351Z,100252.81
2023-03-15T13:13:44.905Z,100251.22
2023-03-15T13:16:28.265Z,100246.59
2023-03-15T13:19:05.253Z,100244.19
2023-03-15T13:21:35.793Z,100246.00
2023-03-15T13:24:06.974Z,100247.34
2023-03-15T13:26:45.327Z,100250.50
2023-03-15T13:29:19.398Z,100243.56
2023-03-15T13:31:47.859Z,100252.34
2023-03-15T13:34:20.701Z,100242.50
2023-03-15T13:36:50.165Z,100235.81
2023-03-15T13:39:23.156Z,100238.66
2023-03-15T13:41:58.619Z,100244.75
2023-03-15T13:44:26.705Z,100241.94
2023-03-15T13:46:56.383Z,100236.81
2023-03-15T13:49:25.246Z,100232.00
2023-03-15T13:51:54.209Z,100232.31
2023-03-15T13:54:26.117Z,100233.41
2023-03-15T13:56:59.472Z,100224.78
2023-03-15T13:59:32.571Z,100236.88
2023-03-15T14:02:02.585Z,100230.72
2023-03-15T14:04:32.725Z,100235.38
2023-03-15T14:07:13.970Z,100234.53
2023-03-15T14:09:41.652Z,100233.16
2023-03-15T14:12:22.729Z,100231.72
2023-03-15T14:14:52.545Z,100230.28
2023-03-15T14:17:25.713Z,100232.00
2023-03-15T14:19:55.361Z,100239.56
2023-03-15T14:22:23.725Z,100227.31
2023-03-15T14:24:52.687Z,100223.53
2023-03-15T14:27:23.477Z,100229.38
2023-03-15T14:29:53.858Z,100235.94
2023-03-15T14:32:28.226Z,100230.44
2023-03-15T14:35:05.351Z,100241.28
2023-03-15T14:37:38.041Z,100241.84
2023-03-15T14:40:15.330Z,100242.09
2023-03-15T14:42:44.965Z,100245.34
2023-03-15T14:45:13.329Z,100242.56
2023-03-15T14:47:55.412Z,100245.88
2023-03-15T14:50:25.169Z,100240.63
2023-03-15T14:52:54.369Z,100240.63
2023-03-15T14:55:24.985Z,100241.84
2023-03-15T14:57:56.337Z,100245.16
2023-03-15T15:00:24.822Z,100250.50
2023-03-15T15:02:55.211Z,100251.88
2023-03-15T15:05:25.004Z,100253.41
2023-03-15T15:07:54.767Z,100266.72
2023-03-15T15:10:23.406Z,100263.13
2023-03-15T15:13:05.269Z,100261.59
2023-03-15T15:15:53.572Z,100261.00
2023-03-15T15:18:23.293Z,100267.19
2023-03-15T15:20:54.099Z,100265.72
2023-03-15T15:23:25.703Z,100262.06
2023-03-15T15:25:56.736Z,100263.16
2023-03-15T15:28:34.799Z,100260.09
2023-03-15T15:31:06.604Z,100271.75
2023-03-15T15:33:34.334Z,100284.06
2023-03-15T15:36:02.252Z,100287.28
2023-03-15T15:38:38.042Z,100276.72
2023-03-15T15:41:06.191Z,100275.25
2023-03-15T15:43:33.961Z,100290.25
2023-03-15T15:46:01.795Z,100287.97
2023-03-15T15:48:30.954Z,100290.00
2023-03-15T15:50:58.801Z,100293.84
2023-03-15T15:53:33.777Z,100295.69
2023-03-15T15:56:01.545Z,100303.06
2023-03-15T15:58:29.137Z,100303.22
2023-03-15T16:00:56.696Z,100306.06
2023-03-15T16:03:24.569Z,100307.72
2023-03-15T16:05:53.616Z,100305.59
2023-03-15T16:08:23.998Z,100314.13
2023-03-15T16:10:51.816Z,100316.00
2023-03-15T16:13:19.451Z,100303.88
2023-03-15T16:15:47.282Z,100303.38
2023-03-15T16:18:15.203Z,100301.91
2023-03-15T16:20:43.042Z,100302.91
2023-03-15T16:23:20.340Z,100311.94
2023-03-15T16:25:49.970Z,100308.44
2023-03-15T16:28:17.827Z,100314.78
2023-03-15T16:30:46.977Z,100313.94
2023-03-15T16:33:16.212Z,100320.75
2023-03-15T16:35:44.714Z,100322.44
2023-03-15T16:38:17.009Z,100324.25
2023-03-15T16:40:46.509Z,100322.28
2023-03-15T16:43:14.804Z,100324.13
2023-03-15T16:48:24.721Z,100325.78
2023-03-15T16:50:52.402Z,100321.59
2023-03-15T16:53:21.315Z,100316.63
2023-03-15T16:55:48.842Z,100321.44
2023-03-15T16:58:20.480Z,100324.25
2023-03-15T17:00:48.467Z,100329.25
2023-03-15T17:03:17.505Z,100327.91
2023-03-15T17:05:48.761Z,100328.25
2023-03-15T17:08:19.685Z,100335.38
2023-03-15T17:10:54.179Z,100339.56
2023-03-15T17:13:27.610Z,100342.03
2023-03-15T17:15:55.237Z,100341.53
2023-03-15T17:18:29.383Z,100348.84
2023-03-15T17:20:58.500Z,100346.81
2023-03-15T17:23:28.630Z,100359.31
2023-03-15T17:25:57.815Z,100350.44
2023-03-15T17:28:25.413Z,100365.44
2023-03-15T17:30:59.720Z,100363.38
2023-03-15T17:33:36.581Z,100369.31
2023-03-15T17:36:06.982Z,100377.47
2023-03-15T17:38:34.571Z,100378.59
2023-03-15T17:41:04.122Z,100377.06
2023-03-15T17:43:39.403Z,100383.16
2023-03-15T17:46:07.009Z,100385.94
2023-03-15T17:48:34.605Z,100387.41
2023-03-15T17:51:02.223Z,100392.63
2023-03-15T17:53:30.019Z,100399.19
2023-03-15T17:55:57.976Z,100392.63
2023-03-15T17:58:28.454Z,100397.75
2023-03-15T18:00:56.777Z,100409.16
2023-03-15T18:03:24.923Z,100411.59
2023-03-15T18:05:52.644Z,100413.81
2023-03-15T18:08:24.432Z,100408.97
2023-03-15T18:10:52.889Z,100409.97
2023-03-15T18:13:23.231Z,100412.22
2023-03-15T18:15:52.753Z,100420.69
2023-03-15T18:18:21.191Z,100418.47
2023-03-15T18:20:51.710Z,100427.91
2023-03-15T18:23:19.609Z,100427.09
2023-03-15T18:25:48.153Z,100441.44
2023-03-15T18:28:18.009Z,100439.75
2023-03-15T18:30:45.659Z,100448.59
2023-03-15T18:33:15.861Z,100452.69
2023-03-15T18:35:43.526Z,100450.25
2023-03-15T18:38:11.794Z,100452.13
2023-03-15T18:40:39.361Z,100453.13
2023-03-15T18:43:07.105Z,100455.78
2023-03-15T18:45:44.321Z,100456.41
2023-03-15T18:48:18.298Z,100451.38
2023-03-15T18:50:46.015Z,100455.69
2023-03-15T18:53:13.749Z,100454.75
2023-03-15T18:55:41.343Z,100459.34
2023-03-15T18:58:12.828Z,100460.19
2023-03-15T19:00:41.473Z,100468.56
2023-03-15T19:03:09.745Z,100471.56
2023-03-15T19:05:39.266Z,100469.69
2023-03-15T19:08:07.301Z,100468.19
2023-03-15T19:10:35.315Z,100466.66
2023-03-15T19:13:04.563Z,100471.41
2023-03-15T19:15:32.844Z,100470.38
2023-03-15T19:18:01.954Z,100468.72
2023-03-15T19:20:29.759Z,100475.47
2023-03-15T19:23:01.220Z,100478.56
2023-03-15T19:25:28.863Z,100480.00
2023-03-15T19:27:57.323Z,100495.78
2023-03-15T19:30:26.280Z,100493.13
2023-03-15T19:32:54.567Z,100492.44
2023-03-15T19:35:22.818Z,100504.44
2023-03-15T19:37:50.761Z,100504.66
2023-03-15T19:40:20.737Z,100498.56
2023-03-15T19:42:49.453Z,100509.75
2023-03-15T19:45:17.666Z,100514.78
2023-03-15T19:47:45.808Z,100515.47
2023-03-15T19:50:14.939Z,100520.66
2023-03-15T19:52:46.670Z,100521.78
2023-03-15T19:55:16.227Z,100532.25
2023-03-15T19:57:45.546Z,100526.56
2023-03-15T20:00:16.237Z,100527.00
2023-03-15T20:02:44.071Z,100529.78
2023-03-15T20:05:13.555Z,100525.16
2023-03-15T20:07:42.474Z,100526.00
2023-03-15T20:10:11.857Z,100525.16
2023-03-15T20:12:42.216Z,100531.59
2023-03-15T20:15:14.501Z,100536.16
2023-03-15T20:17:42.452Z,100532.97
2023-03-15T20:20:13.159Z,100551.09
2023-03-15T20:22:42.638Z,100550.97
2023-03-15T20:25:11.937Z,100547.50
2023-03-15T20:27:40.125Z,100552.66
2023-03-15T20:30:13.235Z,100557.81
2023-03-15T20:32:41.428Z,100564.38
2023-03-15T20:35:10.820Z,100559.78
2023-03-15T20:37:42.528Z,100550.16
2023-03-15T20:40:12.475Z,100559.06
2023-03-15T20:42:40.122Z,100559.47
2023-03-15T20:45:09.518Z,100571.56
2023-03-15T20:47:41.181Z,100563.91
2023-03-15T20:50:11.174Z,100558.59
2023-03-15T20:52:39.030Z,100567.13
2023-03-15T20:55:08.002Z,100572.31
2023-03-15T20:57:37.152Z,100576.75
2023-03-15T21:00:12.168Z,100574.13
2023-03-15T21:02:41.164Z,100576.19
2023-03-15T21:05:10.272Z,100569.34
2023-03-15T21:07:37.848Z,100579.53
2023-03-15T21:10:07.507Z,100583.53
2023-03-15T21:12:35.088Z,100580.75
2023-03-15T21:15:02.827Z,100596.25
2023-03-15T21:17:30.719Z,100593.88
2023-03-15T21:20:00.620Z,100596.69
2023-03-15T21:22:28.219Z,100591.81
2023-03-15T21:24:56.498Z,100592.84
2023-03-15T21:27:26.105Z,100595.41
2023-03-15T21:29:54.941Z,100599.59
2023-03-15T21:32:22.782Z,100596.94
2023-03-15T21:34:50.446Z,100598.94
2023-03-15T21:37:19.420Z,100599.91
2023-03-15T21:39:47.077Z,100601.09
2023-03-15T21:42:14.602Z,100598.41
2023-03-15T21:44:42.266Z,100604.56
2023-03-15T21:47:10.299Z,100606.81
2023-03-15T21:49:37.948Z,100613.78
2023-03-15T21:52:05.491Z,100620.19
2023-03-15T21:54:34.447Z,100625.00
2023-03-15T21:57:02.031Z,100625.59
2023-03-15T21:59:29.589Z,100609.78
2023-03-15T22:01:58.125Z,100608.59
2023-03-15T22:04:25.845Z,100606.66
2023-03-15T22:06:53.648Z,100607.00
2023-03-15T22:09:23.215Z,100606.38
2023-03-15T22:11:52.380Z,100618.69
2023-03-15T22:14:21.722Z,100618.88
2023-03-15T22:16:49.341Z,100620.53
2023-03-15T22:19:17.519Z,100615.84
2023-03-15T22:21:45.083Z,100614.59
2023-03-15T22:24:12.831Z,100615.03
2023-03-15T22:26:42.819Z,100596.91
2023-03-15T22:29:11.940Z,100605.97
2023-03-15T22:31:39.597Z,100615.88
2023-03-15T22:34:07.253Z,100613.69
2023-03-15T22:36:35.022Z,100611.78
2023-03-15T22:39:03.512Z,100605.91
2023-03-15T22:41:31.107Z,100618.91
2023-03-15T22:43:58.709Z,100616.50
2023-03-15T22:46:28.407Z,100624.19
2023-03-15T22:48:56.165Z,100618.47
2023-03-15T22:51:23.764Z,100616.44
2023-03-15T22:53:51.827Z,100610.06
2023-03-15T22:56:19.371Z,100621.84
2023-03-15T22:58:47.220Z,100624.81
2023-03-15T23:01:15.159Z,100625.78
2023-03-15T23:03:44.256Z,100619.44
2023-03-15T23:06:11.886Z,100625.53
2023-03-15T23:08:39.547Z,100621.84
2023-03-15T23:11:07.077Z,100629.78
2023-03-15T23:13:34.638Z,100635.38
2023-03-15T23:16:03.909Z,100629.38
2023-03-15T23:18:34.134Z,100618.69
2023-03-15T23:21:08.294Z,100627.72
2023-03-15T23:23:36.216Z,100627.59
2023-03-15T23:26:03.852Z,100641.50
2023-03-15T23:28:32.561Z,100641.63
2023-03-15T23:31:01.779Z,100638.97
2023-03-15T23:33:30.084Z,100645.34
2023-03-15T23:35:57.863Z,100636.72
2023-03-15T23:38:29.508Z,100642.56
2023-03-15T23:41:00.013Z,100646.78
2023-03-15T23:43:28.401Z,100650.50
2023-03-15T23:45:57.054Z,100652.88
2023-03-15T23:48:25.355Z,100657.28
2023-03-15T23:50:54.308Z,100655.63
2023-03-15T23:53:22.005Z,100664.09
2023-03-15T23:55:56.071Z,100668.78
2023-03-15T23:58:25.669Z,100673.38
